createdAt,value
2023-04-28T00:01:44.673Z,60.59
2023-04-28T00:06:46.334Z,60.45
2023-04-28T00:11:47.845Z,60.69
2023-04-28T00:16:49.637Z,60.74
2023-04-28T00:21:51.188Z,60.78
2023-04-28T00:26:52.660Z,60.76
2023-04-28T00:31:54.126Z,60.81
2023-04-28T00:36:55.797Z,60.74
2023-04-28T00:41:57.787Z,61.03
2023-04-28T00:46:59.748Z,61.76
2023-04-28T00:52:05.265Z,61.85
2023-04-28T00:57:07.995Z,62.15
2023-04-28T01:02:09.462Z,62.34
2023-04-28T01:07:11.725Z,62.50
2023-04-28T01:12:13.342Z,62.59
2023-04-28T01:17:14.878Z,62.52
2023-04-28T01:22:16.700Z,62.71
2023-04-28T01:27:18.258Z,62.79
2023-04-28T01:32:19.700Z,62.92
2023-04-28T01:37:21.160Z,62.95
2023-04-28T01:42:22.653Z,63.22
2023-04-28T01:47:24.145Z,64.13
2023-04-28T01:52:27.327Z,64.12
2023-04-28T01:57:29.190Z,63.99
2023-04-28T02:02:31.001Z,64.21
2023-04-28T02:07:32.596Z,64.01
2023-04-28T02:12:34.054Z,64.03
2023-04-28T02:17:35.729Z,64.21
2023-04-28T02:22:37.198Z,64.31
2023-04-28T02:27:38.670Z,64.55
2023-04-28T02:32:40.150Z,64.82
2023-04-28T02:37:41.673Z,64.83
2023-04-28T02:42:43.124Z,64.76
2023-04-28T02:47:44.707Z,64.56
2023-04-28T02:52:48.339Z,64.56
2023-04-28T02:57:50.605Z,64.75
2023-04-28T03:02:52.109Z,64.86
2023-04-28T03:07:54.022Z,64.69
2023-04-28T03:12:55.439Z,65.11
2023-04-28T03:17:56.902Z,65.41
2023-04-28T03:22:58.489Z,65.41
2023-04-28T03:27:59.931Z,65.56
2023-04-28T03:33:01.470Z,66.40
2023-04-28T03:38:03.011Z,66.56
2023-04-28T03:43:05.010Z,66.44
2023-04-28T03:48:07.405Z,66.27
2023-04-28T03:53:08.949Z,66.56
2023-04-28T03:58:10.694Z,66.92
2023-04-28T04:03:12.332Z,66.76
2023-04-28T04:08:13.911Z,66.78
2023-04-28T04:13:15.508Z,67.64
2023-04-28T04:18:16.991Z,67.69
2023-04-28T04:23:18.391Z,68.05
2023-04-28T04:28:19.822Z,67.99
2023-04-28T04:33:21.264Z,67.61
2023-04-28T04:38:22.670Z,67.15
2023-04-28T04:43:24.157Z,67.22
2023-04-28T04:48:25.646Z,66.86
2023-04-28T04:53:27.194Z,67.06
2023-04-28T04:58:29.160Z,68.08
2023-04-28T05:03:30.828Z,67.42
2023-04-28T05:08:32.346Z,67.27
2023-04-28T05:13:33.764Z,66.89
2023-04-28T05:18:35.228Z,66.79
2023-04-28T05:23:36.639Z,66.34
2023-04-28T05:28:40.652Z,65.95
2023-04-28T05:33:42.193Z,66.04
2023-04-28T05:38:44.318Z,65.85
2023-04-28T05:43:46.425Z,65.30
2023-04-28T05:48:47.899Z,65.68
2023-04-28T05:53:49.343Z,65.69
2023-04-28T05:58:51.349Z,65.18
2023-04-28T06:03:54.013Z,65.30
2023-04-28T06:08:55.762Z,65.00
2023-04-28T06:13:57.267Z,64.45
2023-04-28T06:18:58.731Z,64.35
2023-04-28T06:24:00.859Z,63.82
2023-04-28T06:29:02.584Z,63.54
2023-04-28T06:34:03.999Z,62.07
2023-04-28T06:39:05.748Z,61.31
2023-04-28T06:44:07.221Z,61.57
2023-04-28T06:49:08.678Z,60.90
2023-04-28T06:54:10.103Z,60.01
2023-04-28T06:59:11.511Z,60.46
2023-04-28T07:04:13.084Z,60.47
2023-04-28T07:09:15.928Z,59.84
2023-04-28T07:14:17.616Z,59.46
2023-04-28T07:19:19.287Z,58.96
2023-04-28T07:24:20.741Z,57.63
2023-04-28T07:29:22.171Z,56.85
2023-04-28T07:34:23.620Z,55.20
2023-04-28T07:39:25.172Z,55.97
2023-04-28T07:44:26.747Z,55.42
2023-04-28T07:49:32.035Z,55.62
2023-04-28T07:54:35.110Z,54.92
2023-04-28T07:59:38.365Z,52.65
2023-04-28T08:04:39.961Z,51.40
2023-04-28T08:09:44.114Z,49.17
2023-04-28T08:14:45.527Z,46.29
2023-04-28T08:19:47.574Z,48.48
2023-04-28T08:24:48.989Z,48.53
2023-04-28T08:29:50.457Z,45.64
2023-04-28T08:34:51.863Z,48.12
2023-04-28T08:40:02.170Z,46.87
2023-04-28T08:45:05.549Z,46.42
2023-04-28T08:50:08.683Z,47.23
2023-04-28T08:55:12.837Z,45.51
2023-04-28T09:00:15.088Z,44.12
2023-04-28T09:05:16.833Z,44.57
2023-04-28T09:10:23.542Z,43.28
2023-04-28T09:15:41.001Z,43.63
2023-04-28T09:20:42.563Z,42.71
2023-04-28T09:25:59.767Z,44.34
2023-04-28T09:31:01.811Z,44.54
2023-04-28T09:36:03.441Z,44.43
2023-04-28T09:41:05.105Z,42.70
2023-04-28T09:46:06.600Z,44.98
2023-04-28T09:51:09.107Z,43.00
2023-04-28T09:56:11.850Z,43.84
2023-04-28T10:01:14.632Z,45.94
2023-04-28T10:06:16.242Z,45.66
2023-04-28T10:11:17.945Z,44.51
2023-04-28T10:16:19.838Z,43.90
2023-04-28T10:21:23.577Z,44.30
2023-04-28T10:26:56.549Z,43.03
2023-04-28T10:32:17.539Z,42.71
2023-04-28T10:37:19.500Z,43.60
2023-04-28T10:42:52.950Z,41.43
2023-04-28T10:48:04.439Z,41.67
2023-04-28T10:53:06.404Z,40.97
2023-04-28T10:58:28.058Z,41.66
2023-04-28T11:03:52.377Z,42.48
2023-04-28T11:08:57.460Z,41.36
2023-04-28T11:14:17.153Z,42.12
2023-04-28T11:19:20.174Z,40.64
2023-04-28T11:24:22.976Z,39.80
2023-04-28T11:29:41.575Z,40.40
2023-04-28T11:34:43.069Z,40.09
2023-04-28T11:39:45.386Z,39.65
2023-04-28T11:44:54.489Z,39.77
2023-04-28T11:49:57.229Z,40.06
2023-04-28T11:55:02.325Z,39.83
2023-04-28T12:00:14.955Z,40.61
2023-04-28T12:05:16.972Z,41.14
2023-04-28T12:10:19.880Z,38.61
2023-04-28T12:15:22.722Z,37.87
2023-04-28T12:20:35.408Z,39.26
2023-04-28T12:25:44.475Z,38.93
2023-04-28T12:30:45.964Z,36.52
2023-04-28T12:35:49.028Z,38.86
2023-04-28T12:40:50.578Z,38.91
2023-04-28T12:45:56.519Z,36.48
2023-04-28T12:50:58.148Z,37.84
2023-04-28T12:55:59.584Z,36.16
2023-04-28T13:01:02.072Z,36.32
2023-04-28T13:06:04.409Z,36.72
2023-04-28T13:11:16.084Z,35.71
2023-04-28T13:16:29.235Z,35.34
2023-04-28T13:21:30.735Z,36.32
2023-04-28T13:26:32.264Z,34.55
2023-04-28T13:31:34.452Z,36.38
2023-04-28T13:36:36.287Z,35.49
2023-04-28T13:41:37.984Z,36.01
2023-04-28T13:46:39.506Z,36.13
2023-04-28T13:51:41.164Z,35.66
2023-04-28T13:56:42.614Z,35.42
2023-04-28T14:01:44.264Z,36.22
2023-04-28T14:06:45.961Z,35.95
2023-04-28T14:11:47.551Z,37.10
2023-04-28T14:16:49.056Z,37.38
2023-04-28T14:21:50.470Z,37.03
2023-04-28T14:26:52.767Z,37.68
2023-04-28T14:31:54.172Z,38.62
2023-04-28T14:36:55.687Z,39.03
2023-04-28T14:41:57.200Z,38.39
2023-04-28T14:46:59.703Z,38.37
2023-04-28T14:52:01.590Z,37.91
2023-04-28T14:57:03.118Z,36.91
2023-04-28T15:02:04.953Z,38.13
2023-04-28T15:07:09.226Z,38.45
2023-04-28T15:12:10.755Z,38.34
2023-04-28T15:17:12.288Z,37.85
2023-04-28T15:22:14.008Z,38.73
2023-04-28T15:27:15.622Z,36.55
2023-04-28T15:32:17.473Z,37.61
2023-04-28T15:37:37.153Z,38.50
2023-04-28T15:42:39.205Z,38.51
2023-04-28T15:47:41.317Z,38.12
2023-04-28T15:52:46.451Z,37.87
2023-04-28T15:57:48.480Z,38.51
2023-04-28T16:02:50.321Z,38.60
2023-04-28T16:07:52.784Z,37.93
2023-04-28T16:12:54.190Z,38.13
2023-04-28T16:17:56.903Z,39.12
2023-04-28T16:22:58.399Z,38.56
2023-04-28T16:27:59.810Z,39.36
2023-04-28T16:33:01.403Z,39.97
2023-04-28T16:38:02.969Z,40.72
2023-04-28T16:43:04.419Z,40.37
2023-04-28T16:48:06.341Z,40.27
2023-04-28T16:53:08.164Z,40.41
2023-04-28T16:58:09.571Z,41.08
2023-04-28T17:03:11.638Z,41.25
2023-04-28T17:08:13.880Z,41.22
2023-04-28T17:13:15.652Z,42.27
2023-04-28T17:18:17.087Z,42.70
2023-04-28T17:23:19.220Z,42.80
2023-04-28T17:28:20.713Z,43.97
2023-04-28T17:33:22.113Z,45.38
2023-04-28T17:38:23.826Z,45.31
2023-04-28T17:43:25.777Z,46.49
2023-04-28T17:48:27.252Z,46.35
2023-04-28T17:53:28.660Z,46.88
2023-04-28T17:58:32.342Z,47.01
2023-04-28T18:03:35.515Z,48.00
2023-04-28T18:08:37.217Z,47.08
2023-04-28T18:13:38.701Z,47.83
2023-04-28T18:18:40.707Z,47.86
2023-04-28T18:23:42.280Z,47.55
2023-04-28T18:28:48.105Z,49.10
2023-04-28T18:33:49.677Z,48.79
2023-04-28T18:38:51.116Z,49.26
2023-04-28T18:43:52.536Z,48.71
2023-04-28T18:48:54.598Z,50.16
2023-04-28T18:53:56.099Z,49.50
2023-04-28T18:58:57.681Z,50.54
2023-04-28T19:03:59.229Z,49.61
2023-04-28T19:09:01.499Z,50.64
2023-04-28T19:14:02.979Z,50.08
2023-04-28T19:19:04.539Z,50.95
2023-04-28T19:24:06.715Z,50.82
2023-04-28T19:29:08.238Z,51.01
2023-04-28T19:34:09.666Z,51.25
2023-04-28T19:39:11.083Z,51.80
2023-04-28T19:44:12.670Z,51.78
2023-04-28T19:49:14.153Z,52.27
2023-04-28T19:54:16.725Z,52.65
2023-04-28T19:59:18.300Z,52.71
2023-04-28T20:04:19.809Z,52.96
2023-04-28T20:09:21.378Z,53.70
2023-04-28T20:14:23.098Z,53.89
2023-04-28T20:19:24.937Z,54.20
2023-04-28T20:24:26.422Z,55.90
2023-04-28T20:29:34.399Z,56.12
2023-04-28T20:34:36.396Z,57.12
2023-04-28T20:39:37.816Z,58.05
2023-04-28T20:44:40.931Z,57.46
2023-04-28T20:49:42.362Z,57.14
2023-04-28T20:54:43.914Z,57.80
2023-04-28T20:59:45.908Z,57.47
2023-04-28T21:04:47.652Z,57.38
2023-04-28T21:09:49.307Z,58.57
2023-04-28T21:14:50.802Z,58.99
2023-04-28T21:19:55.197Z,59.47
2023-04-28T21:24:57.646Z,60.29
2023-04-28T21:29:59.189Z,60.10
2023-04-28T21:35:00.641Z,61.49
2023-04-28T21:40:02.549Z,60.10
2023-04-28T21:45:04.666Z,60.24
2023-04-28T21:50:06.894Z,60.21
2023-04-28T21:55:08.810Z,60.94
2023-04-28T22:00:12.605Z,60.63
2023-04-28T22:05:14.044Z,62.06
2023-04-28T22:10:17.622Z,62.65
2023-04-28T22:15:19.220Z,61.82
2023-04-28T22:20:20.673Z,61.04
2023-04-28T22:25:22.224Z,61.28
2023-04-28T22:30:25.988Z,62.08
2023-04-28T22:35:28.140Z,61.69
2023-04-28T22:40:29.557Z,61.87
2023-04-28T22:45:31.107Z,61.89
2023-04-28T22:50:32.616Z,63.00
2023-04-28T22:55:34.075Z,62.96
2023-04-28T23:00:35.845Z,63.86
2023-04-28T23:05:38.382Z,63.34
2023-04-28T23:10:39.794Z,63.27
2023-04-28T23:15:41.766Z,64.25
2023-04-28T23:20:43.206Z,63.92
2023-04-28T23:25:44.644Z,63.55
2023-04-28T23:30:46.055Z,63.51
2023-04-28T23:35:47.460Z,63.57
2023-04-28T23:40:48.951Z,65.04
2023-04-28T23:45:50.422Z,64.17
2023-04-28T23:50:51.889Z,65.88
2023-04-28T23:55:53.331Z,65.14
